Time;durP1;ratioP1;P1;durP2;ratioP2;P2;SDS_P1;SDS_P2;PMS_P1;PMS_P2;Temp;Humidity;BMP_temperature;BMP_pressure;BME280_temperature;BME280_humidity;BME280_pressure;Samples;Min_cycle;Max_cycle;Signal;HPM_P1;HPM_P2
2022/11/04 00:01:43;;;;;;;24.90;14.07;;;11.50;87.40;;;;;;5013521;28;20206;-64
2022/11/04 00:04:10;;;;;;;18.63;13.83;;;11.60;87.20;;;;;;5063334;28;20197;-64
2022/11/04 00:06:37;;;;;;;19.17;14.70;;;11.70;86.90;;;;;;5024055;28;20187;-64
2022/11/04 00:09:04;;;;;;;22.17;14.43;;;11.70;86.80;;;;;;5046390;28;20214;-64
2022/11/04 00:14:14;;;;;;;19.13;14.50;;;11.70;86.70;;;;;;5067538;28;20198;-64
2022/11/04 00:19:25;;;;;;;22.90;14.17;;;11.80;86.60;;;;;;5041004;28;20186;-64
2022/11/04 00:29:57;;;;;;;19.60;13.53;;;11.80;86.50;;;;;;5035416;28;20206;-64
2022/11/04 00:35:09;;;;;;;23.37;14.27;;;11.80;86.70;;;;;;5036075;28;20187;-64
2022/11/04 00:37:43;;;;;;;20.80;14.13;;;11.80;86.70;;;;;;5050750;28;20190;-64
2022/11/04 00:40:12;;;;;;;19.43;13.80;;;11.80;86.50;;;;;;5026916;28;20191;-64
2022/11/04 00:42:38;;;;;;;20.23;14.43;;;11.80;86.50;;;;;;5035718;28;20183;-64
2022/11/04 00:45:05;;;;;;;18.93;14.13;;;11.80;86.50;;;;;;5018197;28;20276;-64
2022/11/04 00:47:30;;;;;;;16.97;13.77;;;11.80;86.50;;;;;;5017125;28;20206;-64
2022/11/04 00:49:56;;;;;;;17.73;13.27;;;11.80;86.30;;;;;;5025965;28;20218;-64
2022/11/04 00:52:22;;;;;;;21.13;14.13;;;11.80;86.40;;;;;;5026343;28;20187;-64
2022/11/04 00:54:47;;;;;;;19.50;13.53;;;11.90;86.50;;;;;;5044040;28;20183;-64
2022/11/04 00:57:14;;;;;;;22.30;16.23;;;11.90;86.50;;;;;;5035532;28;20686;-64
2022/11/04 00:59:40;;;;;;;17.97;13.43;;;11.90;86.60;;;;;;5021301;28;20195;-64
2022/11/04 01:02:07;;;;;;;18.30;14.07;;;11.90;86.70;;;;;;5034343;28;20214;-64
2022/11/04 01:04:33;;;;;;;20.03;13.67;;;11.90;86.70;;;;;;5021667;28;20202;-64
2022/11/04 01:07:00;;;;;;;17.17;13.90;;;11.90;86.50;;;;;;5002730;28;20199;-64
2022/11/04 01:09:26;;;;;;;18.80;13.63;;;12.00;86.50;;;;;;5034257;28;20211;-64
2022/11/04 01:11:52;;;;;;;18.20;13.77;;;11.90;86.30;;;;;;5029969;28;20187;-64
2022/11/04 01:14:18;;;;;;;16.30;12.73;;;11.90;86.30;;;;;;5024680;28;20477;-64
2022/11/04 01:16:44;;;;;;;20.80;13.50;;;11.80;86.70;;;;;;5033549;28;20221;-64
2022/11/04 01:19:10;;;;;;;20.60;13.93;;;11.80;86.70;;;;;;5042135;28;20211;-64
2022/11/04 01:21:36;;;;;;;17.07;12.83;;;11.70;87.10;;;;;;5034743;28;20273;-64
2022/11/04 01:24:02;;;;;;;15.80;12.47;;;11.80;87.10;;;;;;5052818;28;20196;-64
2022/11/04 01:26:28;;;;;;;20.80;13.00;;;11.70;87.20;;;;;;5024657;28;20191;-64
2022/11/04 01:28:55;;;;;;;18.97;13.80;;;11.70;87.30;;;;;;5017155;28;20306;-64
2022/11/04 01:31:23;;;;;;;18.33;13.60;;;11.80;87.20;;;;;;5032372;28;20183;-64
2022/11/04 01:33:51;;;;;;;17.67;13.27;;;11.80;87.10;;;;;;5032743;28;20258;-64
2022/11/04 01:36:17;;;;;;;20.37;14.63;;;11.80;86.90;;;;;;5034373;28;20288;-64
2022/11/04 01:38:43;;;;;;;19.37;12.97;;;11.80;86.90;;;;;;5057168;28;20194;-64
2022/11/04 01:41:16;;;;;;;19.43;14.77;;;11.80;87.10;;;;;;5028549;28;20194;-64
2022/11/04 01:43:55;;;;;;;17.50;12.87;;;11.80;87.10;;;;;;5028333;28;20206;-64
2022/11/04 01:46:32;;;;;;;17.20;13.47;;;11.80;87.00;;;;;;5040285;28;20199;-64
2022/11/04 01:49:38;;;;;;;19.23;13.37;;;11.80;87.40;;;;;;5023453;28;20206;-64
2022/11/04 01:52:18;;;;;;;20.07;14.03;;;11.80;87.40;;;;;;5018711;28;20194;-64
2022/11/04 01:54:46;;;;;;;19.90;14.17;;;11.80;87.30;;;;;;5041751;28;20198;-64
2022/11/04 01:57:21;;;;;;;18.00;13.33;;;11.80;87.10;;;;;;5032201;28;20305;-64
2022/11/04 01:59:47;;;;;;;15.93;13.27;;;11.80;87.10;;;;;;5034321;28;20186;-64
2022/11/04 02:02:13;;;;;;;17.70;14.60;;;11.90;87.00;;;;;;5033283;28;20237;-64
2022/11/04 02:04:39;;;;;;;18.00;12.83;;;11.90;86.90;;;;;;5032772;28;20198;-64
2022/11/04 02:07:08;;;;;;;19.67;13.83;;;11.90;87.00;;;;;;5033338;28;20241;-64
2022/11/04 02:09:36;;;;;;;17.80;13.80;;;11.90;87.00;;;;;;5027088;28;20234;-64
2022/11/04 02:14:48;;;;;;;17.53;14.47;;;11.90;87.00;;;;;;5029436;28;20190;-64
2022/11/04 02:17:17;;;;;;;18.07;12.90;;;12.00;87.00;;;;;;5025700;28;20179;-64
2022/11/04 02:19:45;;;;;;;19.53;13.77;;;12.00;86.90;;;;;;5038557;28;20223;-64
2022/11/04 02:22:30;;;;;;;18.50;12.13;;;11.90;87.10;;;;;;5033220;28;20187;-64
2022/11/04 02:24:55;;;;;;;18.90;13.47;;;11.90;87.10;;;;;;5035032;28;20305;-64
2022/11/04 02:28:08;;;;;;;18.03;13.97;;;12.00;87.10;;;;;;5027158;28;20198;-64
2022/11/04 02:30:44;;;;;;;19.40;12.80;;;12.00;87.10;;;;;;4992663;28;20207;-64
2022/11/04 02:33:18;;;;;;;16.90;13.53;;;11.80;87.20;;;;;;5034292;28;20220;-64
2022/11/04 02:35:53;;;;;;;18.23;13.83;;;11.90;87.30;;;;;;5032991;28;20193;-64
2022/11/04 02:38:48;;;;;;;13.87;12.30;;;11.90;87.30;;;;;;5037169;28;20190;-64
2022/11/04 02:41:40;;;;;;;20.50;13.73;;;12.00;87.20;;;;;;5028809;28;20183;-64
2022/11/04 02:44:15;;;;;;;19.13;13.63;;;12.00;87.20;;;;;;5040694;28;20256;-64
2022/11/04 02:46:56;;;;;;;20.50;13.47;;;12.10;87.30;;;;;;5040729;28;20266;-64
2022/11/04 02:49:34;;;;;;;18.43;14.40;;;12.00;87.50;;;;;;5041082;28;20218;-64
2022/11/04 02:52:11;;;;;;;18.13;14.23;;;12.00;87.70;;;;;;5049143;28;20205;-64
2022/11/04 02:54:47;;;;;;;18.50;13.53;;;12.00;88.30;;;;;;5037455;28;20197;-64
2022/11/04 02:57:19;;;;;;;20.73;15.50;;;12.00;88.40;;;;;;5027877;28;20269;-64
2022/11/04 02:59:54;;;;;;;20.17;15.77;;;12.00;89.00;;;;;;5035146;28;20286;-64
2022/11/04 03:02:28;;;;;;;20.70;14.97;;;11.90;89.10;;;;;;5042038;28;20218;-64
2022/11/04 03:04:56;;;;;;;22.77;16.10;;;11.90;89.40;;;;;;5029015;28;20194;-64
2022/11/04 03:07:27;;;;;;;20.63;15.53;;;11.80;89.50;;;;;;5036381;28;20277;-64
2022/11/04 03:10:02;;;;;;;24.50;16.70;;;11.80;90.10;;;;;;5033518;28;20229;-64
2022/11/04 03:12:36;;;;;;;24.07;16.03;;;11.80;90.90;;;;;;5037330;28;20191;-64
2022/11/04 03:15:06;;;;;;;19.60;16.40;;;11.80;91.20;;;;;;5036082;28;20191;-64
2022/11/04 03:17:42;;;;;;;20.57;16.40;;;11.80;91.70;;;;;;5033698;28;20183;-64
2022/11/04 03:20:19;;;;;;;21.30;16.40;;;11.80;91.90;;;;;;5042644;28;20222;-64
2022/11/04 03:22:45;;;;;;;22.97;17.17;;;11.80;92.30;;;;;;5063805;28;20197;-64
2022/11/04 03:25:11;;;;;;;25.90;20.43;;;11.80;92.50;;;;;;5028785;28;20200;-65
2022/11/04 03:28:04;;;;;;;27.10;20.07;;;11.80;93.00;;;;;;5049743;28;20261;-65
2022/11/04 03:30:44;;;;;;;23.83;19.13;;;11.80;93.30;;;;;;5027191;28;20183;-65
2022/11/04 03:33:44;;;;;;;24.17;18.47;;;11.80;93.30;;;;;;5035741;28;20190;-65
2022/11/04 03:36:10;;;;;;;27.23;20.13;;;11.80;93.60;;;;;;5036472;28;20187;-65
2022/11/04 03:38:36;;;;;;;25.33;19.53;;;11.80;93.40;;;;;;5026865;28;20194;-65
2022/11/04 03:41:08;;;;;;;26.63;21.17;;;11.80;93.40;;;;;;5014859;28;20279;-65
2022/11/04 03:43:35;;;;;;;28.70;20.67;;;11.80;93.50;;;;;;5030021;28;20182;-65
2022/11/04 03:46:02;;;;;;;30.73;21.23;;;11.80;93.50;;;;;;5030365;28;20190;-65
2022/11/04 03:48:28;;;;;;;25.53;19.03;;;11.80;93.60;;;;;;5023593;28;20233;-65
2022/11/04 03:50:54;;;;;;;29.23;19.90;;;11.80;93.50;;;;;;5035321;28;20273;-65
2022/11/04 03:53:22;;;;;;;28.40;20.80;;;11.80;93.50;;;;;;5021682;28;20275;-64
2022/11/04 03:56:22;;;;;;;30.83;21.53;;;11.80;93.70;;;;;;5044723;28;20287;-65
2022/11/04 03:59:03;;;;;;;27.43;19.87;;;11.80;93.80;;;;;;5038721;28;20213;-65
2022/11/04 04:01:53;;;;;;;31.20;21.73;;;11.80;93.80;;;;;;5038505;28;20198;-65
2022/11/04 04:04:33;;;;;;;30.73;20.80;;;11.80;94.00;;;;;;5057137;28;20202;-65
2022/11/04 04:07:34;;;;;;;32.23;21.33;;;11.80;94.10;;;;;;5039163;28;20191;-65
2022/11/04 04:10:37;;;;;;;27.00;20.20;;;11.80;94.00;;;;;;5035273;28;20222;-65
2022/11/04 04:12:59;;;;;;;30.27;22.07;;;11.80;93.90;;;;;;5040949;28;20233;-64
2022/11/04 04:15:56;;;;;;;30.73;21.90;;;11.80;94.00;;;;;;5037131;28;20187;-64
2022/11/04 04:18:43;;;;;;;26.80;19.60;;;11.80;94.00;;;;;;5045809;28;20191;-64
2022/11/04 04:21:13;;;;;;;25.83;20.47;;;11.80;94.00;;;;;;5026517;28;20219;-64
2022/11/04 04:29:11;;;;;;;27.10;20.27;;;11.80;94.00;;;;;;5042984;28;20228;-64
2022/11/04 04:31:51;;;;;;;29.83;22.77;;;11.80;94.00;;;;;;5025504;28;20680;-64
2022/11/04 04:34:24;;;;;;;32.40;21.63;;;11.80;94.00;;;;;;5024196;28;20222;-64
2022/11/04 04:36:58;;;;;;;29.77;21.90;;;11.80;94.00;;;;;;5041887;28;20266;-64
2022/11/04 04:45:04;;;;;;;28.27;22.00;;;11.80;94.10;;;;;;5037250;28;20206;-64
2022/11/04 04:47:32;;;;;;;29.73;22.17;;;11.80;94.20;;;;;;5044717;28;20191;-64
2022/11/04 04:50:00;;;;;;;29.00;22.23;;;11.80;94.10;;;;;;5037376;28;20297;-65
2022/11/04 04:52:29;;;;;;;27.13;22.47;;;11.80;94.10;;;;;;5046079;28;20878;-65
2022/11/04 04:54:55;;;;;;;27.53;20.57;;;11.80;94.10;;;;;;5041501;28;20270;-65
2022/11/04 04:57:21;;;;;;;28.43;21.50;;;11.80;94.00;;;;;;5037437;28;20325;-64
2022/11/04 04:59:47;;;;;;;34.13;23.97;;;11.80;94.10;;;;;;5049496;28;20186;-65
2022/11/04 05:02:13;;;;;;;31.63;23.07;;;11.80;94.20;;;;;;5037454;28;20198;-64
2022/11/04 05:04:38;;;;;;;31.53;21.90;;;11.80;94.40;;;;;;5034190;28;20189;-65
2022/11/04 05:07:05;;;;;;;34.43;21.50;;;11.80;94.50;;;;;;5017698;28;20197;-65
2022/11/04 05:09:31;;;;;;;25.70;22.30;;;11.80;94.60;;;;;;5033638;28;20237;-65
2022/11/04 05:11:57;;;;;;;33.70;22.47;;;11.80;94.70;;;;;;5038027;28;20187;-65
2022/11/04 05:14:22;;;;;;;34.43;23.03;;;11.70;94.90;;;;;;5030396;28;20242;-64
2022/11/04 05:16:48;;;;;;;29.83;22.17;;;11.70;95.10;;;;;;5042555;28;20232;-63
2022/11/04 05:19:14;;;;;;;29.33;22.77;;;11.70;95.10;;;;;;5046651;28;20186;-63
2022/11/04 05:21:39;;;;;;;30.03;21.93;;;11.70;95.20;;;;;;5031445;28;20186;-64
2022/11/04 05:24:05;;;;;;;35.17;23.43;;;11.80;95.30;;;;;;5040992;28;20194;-64
2022/11/04 05:26:31;;;;;;;28.80;22.07;;;11.70;95.40;;;;;;5020815;28;20252;-63
2022/11/04 05:28:56;;;;;;;34.20;23.63;;;11.70;95.60;;;;;;5024652;28;20213;-64
2022/11/04 05:31:22;;;;;;;33.93;23.43;;;11.70;95.70;;;;;;5020091;28;20187;-64
2022/11/04 05:33:47;;;;;;;29.30;21.20;;;11.70;95.70;;;;;;5024188;28;20175;-64
2022/11/04 05:36:15;;;;;;;32.53;24.17;;;11.60;95.80;;;;;;5018159;28;20240;-64
2022/11/04 05:38:41;;;;;;;35.60;26.53;;;11.70;95.90;;;;;;5040596;28;20279;-64
2022/11/04 05:41:10;;;;;;;37.40;26.97;;;11.80;96.00;;;;;;5025288;28;20225;-64
2022/11/04 05:43:36;;;;;;;35.40;26.73;;;11.80;96.00;;;;;;5008791;28;20184;-64
2022/11/04 05:46:01;;;;;;;30.90;23.30;;;11.80;96.10;;;;;;5040220;28;20195;-65
2022/11/04 05:48:27;;;;;;;33.97;23.80;;;11.80;96.10;;;;;;5019149;28;20206;-64
2022/11/04 05:50:54;;;;;;;33.57;24.13;;;11.80;96.20;;;;;;5010697;28;20183;-64
2022/11/04 05:53:19;;;;;;;32.70;23.80;;;11.80;96.20;;;;;;5046752;28;20218;-65
2022/11/04 05:55:45;;;;;;;35.13;24.47;;;11.80;96.20;;;;;;5013659;28;20247;-65
2022/11/04 05:58:11;;;;;;;34.93;24.60;;;11.80;96.20;;;;;;5030043;28;20195;-65
2022/11/04 06:00:36;;;;;;;39.47;26.80;;;11.80;96.20;;;;;;5037284;28;20206;-65
2022/11/04 06:03:02;;;;;;;36.70;25.63;;;11.80;96.30;;;;;;5030246;28;20188;-65
2022/11/04 06:05:28;;;;;;;42.07;26.40;;;11.80;96.30;;;;;;5029647;28;20196;-65
2022/11/04 06:07:55;;;;;;;41.80;28.83;;;11.70;96.30;;;;;;5045652;28;20182;-65
2022/11/04 06:10:21;;;;;;;36.97;26.37;;;11.80;96.40;;;;;;5050389;28;20211;-66
2022/11/04 06:12:46;;;;;;;36.57;27.10;;;11.70;96.40;;;;;;5026165;28;20198;-65
2022/11/04 06:15:12;;;;;;;36.97;25.97;;;11.70;96.50;;;;;;5013815;28;20195;-66
2022/11/04 06:17:38;;;;;;;42.23;28.13;;;11.80;96.50;;;;;;5006387;28;20192;-66
2022/11/04 06:20:05;;;;;;;40.97;27.63;;;11.80;96.50;;;;;;5031991;28;20207;-66
2022/11/04 06:22:31;;;;;;;41.50;27.70;;;11.80;96.50;;;;;;5047071;28;20202;-63
2022/11/04 06:24:57;;;;;;;41.10;29.10;;;11.80;96.50;;;;;;5002503;28;20279;-64
2022/11/04 06:27:22;;;;;;;45.43;31.03;;;11.90;96.50;;;;;;4990662;28;20203;-64
2022/11/04 06:29:48;;;;;;;38.80;28.23;;;11.80;96.50;;;;;;5008103;28;20208;-64
2022/11/04 06:32:17;;;;;;;48.73;30.57;;;11.80;96.50;;;;;;5000077;28;20194;-64
2022/11/04 06:34:43;;;;;;;42.30;29.23;;;11.80;96.60;;;;;;5009139;28;20231;-66
2022/11/04 06:37:09;;;;;;;34.97;24.73;;;11.90;96.60;;;;;;5006615;28;20215;-66
2022/11/04 06:39:35;;;;;;;41.80;28.13;;;11.80;96.60;;;;;;5044412;28;20188;-64
2022/11/04 06:42:01;;;;;;;41.67;28.30;;;11.70;96.70;;;;;;5000886;28;20194;-65
2022/11/04 06:44:27;;;;;;;43.03;28.60;;;11.70;96.70;;;;;;5015823;28;20191;-65
2022/11/04 06:46:53;;;;;;;44.07;29.57;;;11.80;96.80;;;;;;5042055;28;20195;-66
2022/11/04 06:49:20;;;;;;;41.77;26.63;;;11.80;96.80;;;;;;5020090;28;20254;-64
2022/11/04 06:51:49;;;;;;;40.37;28.43;;;11.90;96.70;;;;;;5012612;28;20180;-65
2022/11/04 06:54:15;;;;;;;43.73;28.20;;;11.90;96.70;;;;;;5011719;28;20202;-65
2022/11/04 06:56:41;;;;;;;46.67;29.83;;;12.00;96.70;;;;;;5042489;28;20254;-65
2022/11/04 06:59:08;;;;;;;40.07;27.37;;;12.00;96.70;;;;;;5035563;28;20215;-65
2022/11/04 07:01:35;;;;;;;40.73;26.90;;;12.00;96.80;;;;;;5025943;28;20283;-66
2022/11/04 07:04:04;;;;;;;43.00;27.53;;;12.00;96.80;;;;;;5018914;28;20254;-64
2022/11/04 07:06:30;;;;;;;45.97;29.37;;;11.90;96.80;;;;;;5033366;28;20221;-65
2022/11/04 07:08:58;;;;;;;41.17;28.43;;;12.00;96.80;;;;;;4994010;28;20274;-65
2022/11/04 07:11:25;;;;;;;40.33;27.43;;;12.10;96.80;;;;;;5009408;28;20195;-66
2022/11/04 07:13:51;;;;;;;42.33;27.63;;;12.10;96.80;;;;;;5010845;28;20232;-65
2022/11/04 07:16:17;;;;;;;40.10;27.87;;;12.10;96.80;;;;;;5010447;28;20189;-65
2022/11/04 07:18:43;;;;;;;37.10;26.23;;;12.10;96.80;;;;;;5043906;28;20188;-65
2022/11/04 07:21:10;;;;;;;40.87;26.57;;;12.20;96.80;;;;;;5042438;28;20180;-65
2022/11/04 07:23:36;;;;;;;36.00;25.33;;;12.20;96.80;;;;;;5001299;28;20279;-65
2022/11/04 07:26:03;;;;;;;40.07;26.87;;;12.20;96.80;;;;;;5026888;28;20263;-65
2022/11/04 07:28:29;;;;;;;35.10;25.77;;;12.20;96.80;;;;;;5025644;28;20246;-64
2022/11/04 07:31:00;;;;;;;40.40;27.27;;;12.20;96.80;;;;;;5021997;28;20219;-65
2022/11/04 07:33:26;;;;;;;39.17;26.07;;;12.20;96.80;;;;;;5015061;28;20189;-64
2022/11/04 07:35:52;;;;;;;33.03;24.80;;;12.20;96.80;;;;;;5011621;28;20183;-64
2022/11/04 07:38:19;;;;;;;32.93;24.97;;;12.30;96.80;;;;;;5030636;28;20180;-64
2022/11/04 07:40:45;;;;;;;33.87;25.13;;;12.30;96.80;;;;;;5046061;28;20184;-64
2022/11/04 07:43:10;;;;;;;30.50;23.37;;;12.20;96.80;;;;;;5030187;28;20188;-64
2022/11/04 07:45:36;;;;;;;29.00;22.43;;;12.20;96.80;;;;;;5046525;28;20651;-64
2022/11/04 07:48:02;;;;;;;32.80;24.90;;;12.30;96.80;;;;;;5023002;28;20203;-64
2022/11/04 07:50:28;;;;;;;30.50;23.63;;;12.30;96.80;;;;;;5019621;28;20219;-65
2022/11/04 07:52:53;;;;;;;32.73;22.83;;;12.30;96.80;;;;;;5037341;28;20253;-65
2022/11/04 07:55:19;;;;;;;31.00;22.70;;;12.30;96.80;;;;;;5039082;28;20202;-65
2022/11/04 07:57:46;;;;;;;33.97;25.00;;;12.30;96.80;;;;;;4995667;28;20191;-65
2022/11/04 08:00:14;;;;;;;32.57;23.40;;;12.30;96.80;;;;;;5047495;28;20348;-64
2022/11/04 08:02:45;;;;;;;27.90;21.90;;;12.30;96.70;;;;;;5046369;28;20215;-65
2022/11/04 08:05:14;;;;;;;27.73;20.63;;;12.30;96.80;;;;;;5025943;28;20191;-65
2022/11/04 08:07:40;;;;;;;24.10;19.30;;;12.30;96.80;;;;;;5045481;28;20298;-65
2022/11/04 08:10:07;;;;;;;27.63;19.97;;;12.20;96.90;;;;;;5045039;28;20224;-65
2022/11/04 08:12:33;;;;;;;24.47;19.97;;;12.20;96.90;;;;;;5015282;28;20180;-65
2022/11/04 08:14:59;;;;;;;28.27;19.90;;;12.30;96.90;;;;;;5011992;28;20242;-65
2022/11/04 08:17:25;;;;;;;28.83;21.13;;;12.30;96.90;;;;;;4994160;28;20181;-65
2022/11/04 08:19:51;;;;;;;24.43;18.70;;;12.30;96.90;;;;;;5026321;28;20191;-65
2022/11/04 08:22:17;;;;;;;29.03;19.03;;;12.30;96.90;;;;;;5011267;28;20295;-65
2022/11/04 08:24:46;;;;;;;25.93;20.53;;;12.20;96.90;;;;;;5027621;28;20239;-65
2022/11/04 08:27:12;;;;;;;23.60;17.03;;;12.30;96.90;;;;;;5013718;28;20268;-65
2022/11/04 08:29:37;;;;;;;22.87;18.00;;;12.20;96.90;;;;;;5029290;28;20222;-65
2022/11/04 08:32:03;;;;;;;21.33;17.40;;;12.20;96.90;;;;;;5013567;28;20188;-65
2022/11/04 08:34:29;;;;;;;26.13;20.87;;;12.30;96.90;;;;;;4996368;28;20191;-65
2022/11/04 08:36:56;;;;;;;25.40;19.43;;;12.30;96.90;;;;;;5031004;28;20297;-65
2022/11/04 08:39:22;;;;;;;26.37;18.57;;;12.30;96.90;;;;;;5014466;28;20227;-65
2022/11/04 08:41:49;;;;;;;23.73;17.77;;;12.30;96.90;;;;;;5030575;28;20277;-65
2022/11/04 08:44:15;;;;;;;23.97;17.23;;;12.30;96.90;;;;;;4981783;28;20189;-65
2022/11/04 08:46:42;;;;;;;23.13;17.70;;;12.30;96.90;;;;;;5043336;28;20242;-65
2022/11/04 08:49:08;;;;;;;23.60;18.23;;;12.30;96.90;;;;;;5044468;28;20302;-65
2022/11/04 08:51:37;;;;;;;23.73;20.30;;;12.30;96.80;;;;;;5028650;28;20282;-65
2022/11/04 08:54:03;;;;;;;24.63;19.30;;;12.40;96.80;;;;;;5045675;28;20267;-65
2022/11/04 08:56:31;;;;;;;27.10;19.00;;;12.50;96.90;;;;;;5046185;28;20232;-66
2022/11/04 08:58:58;;;;;;;23.03;17.80;;;12.40;96.80;;;;;;5001313;28;20192;-65
2022/11/04 09:01:25;;;;;;;22.73;17.27;;;12.50;96.90;;;;;;5026639;28;20193;-65
2022/11/04 09:03:52;;;;;;;23.13;17.60;;;12.50;96.90;;;;;;5045204;28;20188;-65
2022/11/04 09:06:24;;;;;;;19.97;16.20;;;12.40;96.80;;;;;;5019522;28;20199;-66
2022/11/04 09:08:51;;;;;;;21.53;17.60;;;12.50;96.80;;;;;;5020055;28;20203;-64
2022/11/04 09:11:17;;;;;;;19.20;15.97;;;12.50;96.80;;;;;;5037689;28;20195;-63
2022/11/04 09:13:43;;;;;;;19.03;16.90;;;12.50;96.80;;;;;;5012448;28;20239;-62
2022/11/04 09:16:12;;;;;;;16.73;14.30;;;12.40;96.80;;;;;;4995549;28;20218;-64
2022/11/04 09:18:37;;;;;;;18.83;14.03;;;12.30;96.70;;;;;;5044831;28;20269;-64
2022/11/04 09:21:05;;;;;;;22.40;15.37;;;12.20;96.80;;;;;;5011447;28;20234;-64
2022/11/04 09:23:31;;;;;;;20.60;15.33;;;12.30;96.70;;;;;;5010654;28;20188;-65
2022/11/04 09:26:01;;;;;;;21.63;15.37;;;12.30;96.70;;;;;;5028507;28;20211;-66
2022/11/04 09:28:27;;;;;;;18.90;14.87;;;12.30;96.70;;;;;;5012927;28;20274;-67
2022/11/04 09:30:53;;;;;;;25.93;17.23;;;12.30;96.70;;;;;;5012449;28;20326;-63
2022/11/04 09:33:18;;;;;;;19.83;15.23;;;12.30;96.70;;;;;;5027700;28;20192;-64
2022/11/04 09:35:54;;;;;;;20.90;16.27;;;12.30;96.60;;;;;;5027377;28;20200;-64
2022/11/04 09:38:19;;;;;;;21.07;14.83;;;12.30;96.60;;;;;;5012171;28;20729;-64
2022/11/04 09:40:47;;;;;;;19.30;16.03;;;12.10;96.50;;;;;;5028531;28;20286;-63
2022/11/04 09:43:50;;;;;;;20.17;14.83;;;12.10;96.50;;;;;;5011490;28;20188;-63
2022/11/04 09:46:16;;;;;;;21.00;16.77;;;12.10;96.50;;;;;;5012291;28;20219;-63
2022/11/04 09:48:49;;;;;;;16.77;14.47;;;12.10;96.40;;;;;;5014609;28;20275;-64
2022/11/04 09:51:17;;;;;;;23.47;17.07;;;12.10;96.40;;;;;;5048071;28;20240;-64
2022/11/04 09:53:58;;;;;;;19.90;15.40;;;12.20;96.50;;;;;;5020958;28;20191;-64
2022/11/04 09:56:29;;;;;;;23.07;16.80;;;12.30;96.50;;;;;;5012317;28;20232;-66
2022/11/04 09:58:55;;;;;;;23.90;16.87;;;12.30;96.50;;;;;;4999894;28;20197;-65
2022/11/04 10:01:30;;;;;;;22.10;17.30;;;12.30;96.50;;;;;;5010827;28;20250;-65
2022/11/04 10:04:14;;;;;;;23.83;16.23;;;12.30;96.50;;;;;;5010167;28;20237;-65
2022/11/04 10:07:40;;;;;;;27.87;16.83;;;12.30;96.40;;;;;;5019602;28;20197;-66
2022/11/04 10:10:31;;;;;;;21.47;15.60;;;12.20;96.40;;;;;;4992383;28;20223;-65
2022/11/04 10:13:29;;;;;;;21.90;16.60;;;12.10;96.30;;;;;;5016264;28;20190;-66
2022/11/04 10:16:17;;;;;;;21.90;16.53;;;12.00;96.30;;;;;;5020576;28;20180;-66
2022/11/04 10:19:04;;;;;;;21.57;16.27;;;12.00;96.30;;;;;;5042305;28;20184;-66
2022/11/04 10:21:40;;;;;;;24.47;18.53;;;12.10;96.30;;;;;;5010661;28;20194;-66
2022/11/04 10:24:22;;;;;;;25.27;18.07;;;12.10;96.30;;;;;;5008341;28;20219;-65
2022/11/04 10:26:56;;;;;;;25.87;18.10;;;12.20;96.30;;;;;;5008707;28;20192;-65
2022/11/04 10:29:40;;;;;;;24.53;17.67;;;12.20;96.30;;;;;;5011942;28;20215;-65
2022/11/04 10:32:39;;;;;;;20.03;15.77;;;12.20;96.30;;;;;;5009158;28;20176;-65
2022/11/04 10:35:09;;;;;;;21.67;16.30;;;12.30;96.30;;;;;;5006404;28;20191;-66
2022/11/04 10:37:35;;;;;;;23.10;16.87;;;12.20;96.30;;;;;;5010554;28;20186;-65
2022/11/04 10:40:23;;;;;;;25.80;19.40;;;12.30;96.30;;;;;;5007057;28;20188;-65
2022/11/04 10:42:50;;;;;;;21.27;17.07;;;12.30;96.30;;;;;;5041567;28;20191;-65
2022/11/04 10:45:19;;;;;;;22.10;16.97;;;12.30;96.30;;;;;;5043299;28;20647;-65
2022/11/04 10:47:54;;;;;;;24.23;16.53;;;12.30;96.30;;;;;;5047168;28;20279;-65
2022/11/04 10:50:47;;;;;;;20.80;16.73;;;12.30;96.30;;;;;;5014864;28;20211;-65
2022/11/04 10:53:23;;;;;;;23.20;17.40;;;12.30;96.30;;;;;;5010123;28;20637;-65
2022/11/04 10:56:21;;;;;;;24.07;17.40;;;12.40;96.40;;;;;;5009700;28;20261;-65
2022/11/04 10:58:47;;;;;;;25.37;17.83;;;12.50;96.40;;;;;;5042890;28;20199;-65
2022/11/04 11:01:33;;;;;;;26.30;18.07;;;12.40;96.20;;;;;;5017120;28;20187;-65
2022/11/04 11:04:00;;;;;;;27.23;18.47;;;12.50;96.30;;;;;;4997809;28;20195;-65
2022/11/04 11:06:32;;;;;;;23.10;18.60;;;12.50;96.30;;;;;;5046857;28;20190;-65
2022/11/04 11:09:27;;;;;;;20.77;16.37;;;12.60;96.30;;;;;;5014222;28;20276;-65
2022/11/04 11:12:15;;;;;;;26.10;17.80;;;12.60;96.30;;;;;;5001815;28;20211;-65
2022/11/04 11:14:41;;;;;;;18.23;15.57;;;12.50;96.20;;;;;;5014424;28;20203;-65
2022/11/04 11:17:13;;;;;;;21.93;14.97;;;12.60;96.20;;;;;;5025251;28;20216;-65
2022/11/04 11:19:59;;;;;;;18.57;14.43;;;12.60;96.20;;;;;;5012635;28;20187;-65
2022/11/04 11:22:55;;;;;;;20.27;15.53;;;12.40;96.10;;;;;;5045638;28;20731;-65
2022/11/04 11:25:32;;;;;;;19.43;15.50;;;12.50;96.10;;;;;;5009993;28;20195;-65
2022/11/04 11:28:22;;;;;;;17.77;14.13;;;12.40;96.00;;;;;;5030116;28;20283;-65
2022/11/04 11:30:48;;;;;;;15.97;13.87;;;12.40;96.00;;;;;;5007017;28;20214;-65
2022/11/04 11:33:23;;;;;;;20.33;15.03;;;12.30;96.00;;;;;;5014029;28;20195;-65
2022/11/04 11:36:15;;;;;;;23.00;15.03;;;12.30;96.00;;;;;;5046950;28;20214;-65
2022/11/04 11:39:02;;;;;;;17.10;13.43;;;12.30;95.90;;;;;;5013848;28;20234;-65
2022/11/04 11:41:32;;;;;;;19.47;13.23;;;12.30;95.90;;;;;;5014550;28;20242;-65
2022/11/04 11:44:17;;;;;;;20.83;14.20;;;12.20;95.90;;;;;;4998781;28;20183;-65
2022/11/04 11:46:53;;;;;;;17.57;13.37;;;12.20;95.90;;;;;;5015252;28;20171;-65
2022/11/04 11:49:29;;;;;;;19.13;14.17;;;12.20;95.80;;;;;;5046185;28;20231;-65
2022/11/04 11:52:14;;;;;;;21.37;16.47;;;12.20;95.90;;;;;;5013941;28;20191;-65
2022/11/04 11:54:43;;;;;;;22.73;17.60;;;12.30;95.90;;;;;;5019704;28;20238;-65
2022/11/04 11:57:27;;;;;;;22.87;16.90;;;12.20;95.80;;;;;;5029271;28;20243;-65
2022/11/04 12:00:08;;;;;;;21.30;16.50;;;12.20;95.80;;;;;;5036794;28;20195;-65
2022/11/04 12:02:39;;;;;;;22.40;15.43;;;12.10;95.80;;;;;;5014834;28;20276;-64
2022/11/04 12:05:12;;;;;;;25.57;17.83;;;12.10;95.80;;;;;;5013806;28;20199;-65
2022/11/04 12:07:46;;;;;;;23.70;16.70;;;12.10;95.80;;;;;;5013543;28;20183;-65
2022/11/04 12:10:40;;;;;;;26.47;17.63;;;12.10;95.80;;;;;;5046228;28;20211;-65
2022/11/04 12:13:27;;;;;;;28.20;17.90;;;12.20;95.90;;;;;;5012976;28;20306;-65
2022/11/04 12:15:59;;;;;;;27.20;18.97;;;12.20;95.90;;;;;;5045813;28;20186;-65
2022/11/04 12:18:51;;;;;;;26.67;16.27;;;12.20;95.90;;;;;;5013388;28;20184;-64
2022/11/04 12:21:20;;;;;;;23.93;15.83;;;12.20;95.90;;;;;;5003320;28;20219;-65
2022/11/04 12:24:17;;;;;;;22.30;16.33;;;12.10;95.80;;;;;;5011218;28;20218;-65
2022/11/04 12:26:58;;;;;;;25.13;17.63;;;12.10;95.80;;;;;;5015921;28;20183;-65
2022/11/04 12:29:51;;;;;;;21.67;16.53;;;12.10;95.90;;;;;;5014344;28;20214;-65
2022/11/04 12:32:16;;;;;;;23.00;17.40;;;12.10;95.80;;;;;;5047656;28;20172;-64
2022/11/04 12:34:48;;;;;;;23.07;16.33;;;12.10;95.80;;;;;;5013209;28;20180;-64
2022/11/04 12:37:26;;;;;;;18.53;15.20;;;12.20;95.90;;;;;;5016134;28;20196;-64
2022/11/04 12:40:11;;;;;;;23.97;16.33;;;12.20;95.90;;;;;;5014337;28;20190;-63
2022/11/04 12:42:58;;;;;;;22.47;14.73;;;12.30;95.90;;;;;;5013349;28;20195;-65
2022/11/04 12:45:55;;;;;;;20.00;14.67;;;12.30;96.00;;;;;;5013559;28;20242;-65
2022/11/04 12:48:34;;;;;;;19.10;14.13;;;12.30;96.20;;;;;;5012556;28;20207;-65
2022/11/04 12:51:21;;;;;;;17.60;13.43;;;12.30;96.20;;;;;;5011733;28;20250;-65
2022/11/04 12:54:07;;;;;;;20.47;13.67;;;12.20;96.20;;;;;;5045147;28;20191;-64
2022/11/04 12:56:38;;;;;;;18.40;13.50;;;12.20;96.20;;;;;;4993863;28;20232;-64
2022/11/04 12:59:22;;;;;;;21.03;13.23;;;12.30;96.30;;;;;;5010839;28;20184;-65
2022/11/04 13:01:53;;;;;;;18.17;12.37;;;12.30;96.30;;;;;;5042741;28;20180;-64
2022/11/04 13:05:11;;;;;;;17.57;12.27;;;12.30;96.20;;;;;;5045976;28;20180;-63
2022/11/04 13:07:52;;;;;;;18.73;12.90;;;12.30;96.20;;;;;;4950364;28;20228;-65
2022/11/04 13:10:29;;;;;;;16.13;12.03;;;12.30;96.20;;;;;;5012940;28;20269;-65
2022/11/04 13:12:56;;;;;;;17.70;12.77;;;12.30;96.20;;;;;;5016498;28;20220;-64
2022/11/04 13:15:29;;;;;;;19.20;12.63;;;12.30;96.30;;;;;;5044373;28;20219;-65
2022/11/04 13:18:03;;;;;;;21.03;13.20;;;12.30;96.40;;;;;;5012617;28;20267;-66
2022/11/04 13:20:35;;;;;;;17.10;12.53;;;12.30;96.50;;;;;;5046428;28;20191;-66
2022/11/04 13:23:07;;;;;;;14.80;12.03;;;12.30;96.60;;;;;;5013230;28;20187;-66
2022/11/04 13:25:39;;;;;;;16.53;12.30;;;12.20;96.70;;;;;;5037883;28;20183;-66